createdAt,value
2022-08-01T00:02:14.701Z,19.40
2022-08-01T00:07:16.536Z,19.33
2022-08-01T00:12:18.323Z,19.09
2022-08-01T00:17:24.115Z,19.24
2022-08-01T00:22:25.849Z,19.11
2022-08-01T00:27:27.719Z,19.07
2022-08-01T00:32:32.244Z,19.14
2022-08-01T00:37:33.781Z,19.25
2022-08-01T00:42:38.111Z,19.05
2022-08-01T00:47:43.183Z,19.06
2022-08-01T00:52:50.010Z,18.99
2022-08-01T00:58:02.285Z,19.07
2022-08-01T01:03:06.995Z,18.92
2022-08-01T01:08:16.644Z,18.87
2022-08-01T01:13:24.912Z,18.83
2022-08-01T01:18:29.348Z,18.72
2022-08-01T01:24:04.782Z,18.99
2022-08-01T01:29:18.159Z,18.96
2022-08-01T01:34:22.120Z,18.91
2022-08-01T01:39:26.899Z,18.98
2022-08-01T01:44:30.346Z,18.84
2022-08-01T01:49:33.928Z,18.78
2022-08-01T01:54:43.718Z,18.85
2022-08-01T01:59:46.817Z,18.71
2022-08-01T02:04:49.557Z,18.74
2022-08-01T02:09:54.167Z,18.75
2022-08-01T02:15:01.172Z,18.76
2022-08-01T02:20:02.953Z,18.85
2022-08-01T02:25:19.596Z,19.00
2022-08-01T02:30:22.332Z,18.80
2022-08-01T02:35:28.511Z,18.83
2022-08-01T02:40:33.849Z,18.93
2022-08-01T02:45:38.447Z,18.75
2022-08-01T02:50:44.187Z,18.76
2022-08-01T02:55:48.372Z,18.84
2022-08-01T03:00:50.179Z,18.69
2022-08-01T03:05:51.869Z,18.85
2022-08-01T03:10:55.237Z,18.78
2022-08-01T03:15:58.337Z,18.87
2022-08-01T03:21:01.092Z,18.77
2022-08-01T03:26:06.019Z,18.66
2022-08-01T03:31:07.647Z,18.87
2022-08-01T03:36:12.560Z,18.77
2022-08-01T03:41:21.985Z,18.76
2022-08-01T03:46:48.865Z,18.71
2022-08-01T03:51:51.773Z,18.68
2022-08-01T03:56:53.718Z,18.67
2022-08-01T04:01:56.783Z,18.79
2022-08-01T04:06:58.455Z,18.82
2022-08-01T04:12:01.324Z,18.90
2022-08-01T04:17:13.735Z,18.83
2022-08-01T04:22:16.703Z,18.83
2022-08-01T04:27:49.928Z,18.86
2022-08-01T04:32:47.931Z,18.98
2022-08-01T04:37:52.068Z,18.77
2022-08-01T04:42:54.798Z,18.94
2022-08-01T04:47:57.981Z,18.86
2022-08-01T04:52:59.549Z,19.01
2022-08-01T04:58:01.307Z,18.90
2022-08-01T05:03:03.247Z,18.99
2022-08-01T05:08:07.235Z,18.96
2022-08-01T05:13:09.784Z,18.87
2022-08-01T05:18:11.393Z,19.08
2022-08-01T05:23:20.594Z,19.07
2022-08-01T05:28:34.926Z,19.14
2022-08-01T05:33:36.818Z,19.24
2022-08-01T05:38:38.447Z,19.43
2022-08-01T05:43:39.975Z,19.42
2022-08-01T05:48:41.633Z,19.18
2022-08-01T05:53:45.243Z,19.10
2022-08-01T05:58:46.811Z,19.13
2022-08-01T06:03:48.369Z,19.13
2022-08-01T06:08:50.237Z,19.33
2022-08-01T06:13:54.720Z,19.40
2022-08-01T06:18:56.861Z,19.31
2022-08-01T06:23:59.799Z,19.23
2022-08-01T06:29:03.870Z,19.03
2022-08-01T06:34:05.431Z,18.91
2022-08-01T06:39:07.109Z,18.91
2022-08-01T06:44:08.852Z,18.67
2022-08-01T06:49:13.322Z,18.38
2022-08-01T06:54:17.063Z,18.45
2022-08-01T06:59:18.685Z,18.68
2022-08-01T07:04:20.204Z,18.49
2022-08-01T07:09:21.796Z,18.55
2022-08-01T07:14:24.075Z,18.67
2022-08-01T07:19:26.777Z,18.62
2022-08-01T07:24:30.101Z,18.43
2022-08-01T07:29:31.712Z,18.78
2022-08-01T07:34:33.447Z,18.92
2022-08-01T07:39:35.050Z,18.97
2022-08-01T07:44:37.695Z,18.71
2022-08-01T07:49:41.202Z,18.95
2022-08-01T07:54:43.173Z,19.02
2022-08-01T07:59:45.838Z,18.94
2022-08-01T08:04:49.240Z,19.36
2022-08-01T08:09:51.465Z,19.50
2022-08-01T08:14:53.157Z,19.17
2022-08-01T08:19:54.820Z,19.22
2022-08-01T08:24:56.476Z,18.95
2022-08-01T08:30:02.785Z,19.42
2022-08-01T08:35:06.063Z,19.32
2022-08-01T08:40:09.348Z,19.02
2022-08-01T08:45:12.158Z,19.17
2022-08-01T08:50:14.166Z,19.39
2022-08-01T08:55:17.567Z,19.62
2022-08-01T09:00:21.690Z,20.15
2022-08-01T09:05:26.686Z,20.24
2022-08-01T09:10:41.115Z,20.61
2022-08-01T09:15:49.220Z,20.63
2022-08-01T09:20:50.884Z,20.39
2022-08-01T09:25:56.925Z,20.33
2022-08-01T09:31:07.651Z,20.55
2022-08-01T09:36:13.244Z,20.57
2022-08-01T09:41:16.707Z,20.29
2022-08-01T09:46:21.245Z,20.38
2022-08-01T09:51:59.506Z,19.57
2022-08-01T09:56:54.035Z,19.61
2022-08-01T10:01:56.074Z,19.61
2022-08-01T10:07:06.812Z,19.71
2022-08-01T10:12:18.152Z,19.83
2022-08-01T10:17:22.628Z,20.07
2022-08-01T10:22:25.197Z,20.88
2022-08-01T10:27:37.866Z,20.83
2022-08-01T10:32:40.779Z,20.29
2022-08-01T10:37:51.962Z,20.37
2022-08-01T10:42:55.146Z,20.68
2022-08-01T10:48:21.259Z,20.58
2022-08-01T10:53:31.617Z,20.54
2022-08-01T10:58:46.871Z,20.09
2022-08-01T11:03:59.037Z,20.37
2022-08-01T11:09:06.209Z,20.77
2022-08-01T11:14:10.464Z,20.41
2022-08-01T11:19:12.384Z,20.77
2022-08-01T11:24:13.918Z,20.22
2022-08-01T11:29:21.038Z,19.72
2022-08-01T11:34:53.147Z,19.44
2022-08-01T11:40:18.455Z,19.77
2022-08-01T11:45:20.771Z,20.17
2022-08-01T11:50:37.974Z,20.50
2022-08-01T11:55:51.440Z,20.75
2022-08-01T12:00:58.779Z,20.66
2022-08-01T12:06:00.600Z,21.07
2022-08-01T12:11:04.269Z,20.95
2022-08-01T12:16:10.064Z,21.23
2022-08-01T12:21:11.776Z,21.50
2022-08-01T12:26:28.156Z,21.46
2022-08-01T12:31:37.351Z,21.38
2022-08-01T12:36:39.499Z,21.68
2022-08-01T12:41:44.953Z,21.78
2022-08-01T12:46:46.719Z,21.42
2022-08-01T12:51:57.501Z,21.37
2022-08-01T12:56:59.277Z,21.28
2022-08-01T13:02:09.604Z,21.45
2022-08-01T13:07:11.238Z,21.48
2022-08-01T13:12:13.137Z,21.44
2022-08-01T13:17:34.114Z,21.56
2022-08-01T13:22:37.688Z,22.05
2022-08-01T13:27:39.680Z,21.93
2022-08-01T13:33:00.558Z,22.28
2022-08-01T13:38:02.077Z,22.26
2022-08-01T13:43:03.810Z,22.81
2022-08-01T13:48:13.160Z,22.41
2022-08-01T13:53:20.561Z,23.42
2022-08-01T13:58:22.408Z,23.74
2022-08-01T14:03:33.217Z,22.98
2022-08-01T14:08:35.729Z,23.08
2022-08-01T14:13:46.661Z,23.26
2022-08-01T14:18:48.691Z,23.40
2022-08-01T14:23:50.636Z,22.50
2022-08-01T14:28:52.270Z,22.01
2022-08-01T14:33:56.106Z,21.96
2022-08-01T14:39:00.348Z,22.49
2022-08-01T14:44:05.118Z,22.48
2022-08-01T14:49:06.814Z,22.16
2022-08-01T14:54:09.395Z,22.64
2022-08-01T14:59:21.288Z,22.34
2022-08-01T15:04:25.676Z,22.44
2022-08-01T15:09:27.245Z,22.65
2022-08-01T15:14:47.537Z,22.26
2022-08-01T15:19:51.518Z,22.09
2022-08-01T15:24:57.639Z,22.48
2022-08-01T15:29:59.356Z,22.37
2022-08-01T15:35:01.335Z,22.55
2022-08-01T15:40:03.390Z,22.85
2022-08-01T15:45:05.410Z,22.97
2022-08-01T15:50:08.028Z,23.43
2022-08-01T15:55:09.760Z,23.12
2022-08-01T16:00:11.696Z,23.21
2022-08-01T16:05:17.197Z,23.16
2022-08-01T16:10:22.118Z,23.44
2022-08-01T16:15:36.251Z,22.80
2022-08-01T16:20:44.764Z,22.69
2022-08-01T16:25:47.407Z,22.50
2022-08-01T16:30:55.429Z,22.85
2022-08-01T16:36:12.586Z,22.61
2022-08-01T16:41:20.176Z,22.54
2022-08-01T16:46:23.854Z,22.43
2022-08-01T16:51:25.484Z,22.44
2022-08-01T16:56:27.092Z,22.43
2022-08-01T17:01:58.174Z,22.41
2022-08-01T17:06:52.453Z,22.33
2022-08-01T17:11:56.016Z,22.32
2022-08-01T17:16:59.527Z,22.15
2022-08-01T17:22:01.778Z,21.79
2022-08-01T17:27:12.476Z,21.90
2022-08-01T17:32:15.821Z,21.74
2022-08-01T17:37:17.446Z,22.08
2022-08-01T17:42:19.098Z,22.11
2022-08-01T17:47:48.145Z,21.84
2022-08-01T17:52:46.294Z,21.62
2022-08-01T17:57:47.877Z,21.36
2022-08-01T18:02:50.438Z,21.11
2022-08-01T18:08:01.595Z,20.87
2022-08-01T18:13:04.169Z,20.85
2022-08-01T18:18:07.553Z,20.59
2022-08-01T18:23:11.050Z,20.44
2022-08-01T18:28:16.329Z,20.20
2022-08-01T18:33:33.382Z,20.09
2022-08-01T18:38:35.302Z,19.90
2022-08-01T18:43:42.182Z,19.82
2022-08-01T18:48:43.811Z,19.45
2022-08-01T18:53:47.010Z,19.28
2022-08-01T18:58:54.606Z,19.08
2022-08-01T19:03:57.217Z,18.64
2022-08-01T19:09:02.409Z,18.43
2022-08-01T19:14:05.630Z,18.39
2022-08-01T19:19:09.685Z,18.11
2022-08-01T19:24:17.530Z,17.86
2022-08-01T19:29:35.866Z,17.39
2022-08-01T19:35:14.595Z,17.06
2022-08-01T19:40:27.098Z,16.79
2022-08-01T19:45:29.807Z,16.64
2022-08-01T19:50:32.759Z,16.52
2022-08-01T19:55:39.667Z,16.45
2022-08-01T20:00:42.803Z,15.96
2022-08-01T20:05:44.683Z,15.89
2022-08-01T20:10:48.607Z,15.49
2022-08-01T20:15:51.939Z,15.39
2022-08-01T20:20:54.788Z,15.18
2022-08-01T20:26:00.900Z,14.70
2022-08-01T20:31:05.704Z,14.72
2022-08-01T20:36:12.125Z,14.45
2022-08-01T20:41:27.926Z,14.41
2022-08-01T20:46:29.776Z,14.43
2022-08-01T20:51:32.061Z,14.37
2022-08-01T20:56:39.616Z,14.01
2022-08-01T21:02:02.203Z,13.76
2022-08-01T21:07:23.801Z,13.57
2022-08-01T21:12:55.225Z,13.61
2022-08-01T21:18:07.733Z,13.39
2022-08-01T21:23:30.674Z,13.14
2022-08-01T21:28:34.740Z,12.93
2022-08-01T21:33:39.513Z,12.98
2022-08-01T21:39:02.690Z,12.63
2022-08-01T21:44:04.560Z,12.61
2022-08-01T21:49:06.323Z,12.44
2022-08-01T21:54:51.983Z,12.52
2022-08-01T22:00:24.958Z,12.40
2022-08-01T22:05:50.651Z,12.19
2022-08-01T22:11:05.688Z,12.12
2022-08-01T22:16:07.616Z,11.81
2022-08-01T22:21:09.890Z,11.89
2022-08-01T22:26:12.245Z,11.86
2022-08-01T22:31:16.323Z,11.84
2022-08-01T22:36:18.996Z,11.45
2022-08-01T22:41:29.971Z,11.52
2022-08-01T22:47:02.361Z,11.53
2022-08-01T22:52:16.325Z,11.52
2022-08-01T22:57:30.436Z,11.54
2022-08-01T23:02:39.941Z,11.27
2022-08-01T23:07:50.873Z,11.02
2022-08-01T23:12:55.128Z,11.15
2022-08-01T23:17:58.037Z,10.97
2022-08-01T23:23:01.689Z,11.16
2022-08-01T23:28:06.197Z,11.18
2022-08-01T23:33:08.337Z,10.62
2022-08-01T23:38:10.913Z,10.68
2022-08-01T23:43:17.711Z,10.88
2022-08-01T23:48:19.774Z,10.70
2022-08-01T23:53:21.336Z,10.59
2022-08-01T23:58:26.475Z,10.65
